createdAt,value
2022-11-17T00:01:13.518Z,3.90
2022-11-17T00:03:40.740Z,4.00
2022-11-17T00:06:07.963Z,4.25
2022-11-17T00:08:35.208Z,4.10
2022-11-17T00:11:02.357Z,5.53
2022-11-17T00:13:48.555Z,3.45
2022-11-17T00:16:15.776Z,3.55
2022-11-17T00:19:01.728Z,3.13
2022-11-17T00:21:29.024Z,3.35
2022-11-17T00:23:56.171Z,4.30
2022-11-17T00:26:23.457Z,3.28
2022-11-17T00:28:50.640Z,3.33
2022-11-17T00:31:36.740Z,3.22
2022-11-17T00:34:07.128Z,4.18
2022-11-17T00:36:34.486Z,4.10
2022-11-17T00:39:01.644Z,4.03
2022-11-17T00:41:28.887Z,3.25
2022-11-17T00:43:56.086Z,2.72
2022-11-17T00:46:23.387Z,3.67
2022-11-17T00:48:50.531Z,3.08
2022-11-17T00:51:17.779Z,2.90
2022-11-17T00:53:45.043Z,4.05
2022-11-17T00:56:12.232Z,3.58
2022-11-17T00:58:39.442Z,2.70
2022-11-17T01:01:06.752Z,1.95
2022-11-17T01:03:34.204Z,4.22
2022-11-17T01:06:01.534Z,2.75
2022-11-17T01:08:28.785Z,3.08
2022-11-17T01:10:55.944Z,4.30
2022-11-17T01:13:23.174Z,3.05
2022-11-17T01:15:50.378Z,3.10
2022-11-17T01:18:17.614Z,4.53
2022-11-17T01:20:44.781Z,2.20
2022-11-17T01:23:11.987Z,1.90
2022-11-17T01:25:40.933Z,2.28
2022-11-17T01:28:08.138Z,1.58
2022-11-17T01:30:35.299Z,1.73
2022-11-17T01:33:02.501Z,2.08
2022-11-17T01:35:29.679Z,2.15
2022-11-17T01:37:56.920Z,2.17
2022-11-17T01:40:24.107Z,2.10
2022-11-17T01:42:51.371Z,2.50
2022-11-17T01:45:18.534Z,2.50
2022-11-17T01:47:45.731Z,2.50
2022-11-17T01:50:12.937Z,2.65
2022-11-17T01:52:41.125Z,3.85
2022-11-17T01:55:08.350Z,5.35
2022-11-17T01:57:35.596Z,4.65
2022-11-17T02:00:02.829Z,4.40
2022-11-17T02:02:31.572Z,5.63
2022-11-17T02:04:58.728Z,6.22
2022-11-17T02:07:26.030Z,5.75
2022-11-17T02:09:53.281Z,7.75
2022-11-17T02:12:20.544Z,8.52
2022-11-17T02:14:47.682Z,7.35
2022-11-17T02:17:14.916Z,10.15
2022-11-17T02:19:42.167Z,12.60
2022-11-17T02:22:09.392Z,13.02
2022-11-17T02:24:36.523Z,17.92
2022-11-17T02:27:03.747Z,14.55
2022-11-17T02:29:30.915Z,13.38
2022-11-17T02:31:58.299Z,13.25
2022-11-17T02:34:25.485Z,12.95
2022-11-17T02:36:52.746Z,15.20
2022-11-17T02:39:19.977Z,14.32
2022-11-17T02:41:47.206Z,14.07
2022-11-17T02:44:14.369Z,12.35
2022-11-17T02:46:41.584Z,10.70
2022-11-17T02:49:08.968Z,8.30
2022-11-17T02:51:36.187Z,9.30
2022-11-17T02:54:03.416Z,9.77
2022-11-17T02:56:30.685Z,9.55
2022-11-17T02:58:57.898Z,8.68
2022-11-17T03:01:25.150Z,9.32
2022-11-17T03:03:52.355Z,7.90
2022-11-17T03:06:20.037Z,7.97
2022-11-17T03:08:47.234Z,6.80
2022-11-17T03:11:14.535Z,5.00
2022-11-17T03:13:41.671Z,4.20
2022-11-17T03:16:08.848Z,3.47
2022-11-17T03:18:36.080Z,3.45
2022-11-17T03:21:04.074Z,3.20
2022-11-17T03:23:31.195Z,2.30
2022-11-17T03:25:58.404Z,2.75
2022-11-17T03:28:25.567Z,2.78
2022-11-17T03:30:52.794Z,1.45
2022-11-17T03:33:19.943Z,1.70
2022-11-17T03:35:50.700Z,1.27
2022-11-17T03:38:18.560Z,1.33
2022-11-17T03:40:45.816Z,0.77
2022-11-17T03:43:13.052Z,1.08
2022-11-17T03:45:40.207Z,1.00
2022-11-17T03:48:07.413Z,0.80
2022-11-17T03:50:34.635Z,1.05
2022-11-17T03:53:01.929Z,0.68
2022-11-17T03:55:29.113Z,0.70
2022-11-17T03:57:56.367Z,1.27
2022-11-17T04:00:23.566Z,0.70
2022-11-17T04:02:50.853Z,0.77
2022-11-17T04:05:17.995Z,0.70
2022-11-17T04:07:45.196Z,0.65
2022-11-17T04:10:12.363Z,0.68
2022-11-17T04:12:58.408Z,0.57
2022-11-17T04:15:44.404Z,0.40
2022-11-17T04:18:11.633Z,0.95
2022-11-17T04:20:38.791Z,0.90
2022-11-17T04:23:09.156Z,0.52
2022-11-17T04:25:55.140Z,0.60
2022-11-17T04:28:37.674Z,1.10
2022-11-17T04:31:04.932Z,0.73
2022-11-17T04:33:32.214Z,1.48
2022-11-17T04:35:59.520Z,0.90
2022-11-17T04:38:26.696Z,1.20
2022-11-17T04:41:12.562Z,1.77
2022-11-17T04:43:39.765Z,1.55
2022-11-17T04:46:06.927Z,2.38
2022-11-17T04:48:34.144Z,1.42
2022-11-17T04:51:01.292Z,2.05
2022-11-17T04:53:28.503Z,1.40
2022-11-17T04:55:55.706Z,1.52
2022-11-17T04:58:22.906Z,1.65
2022-11-17T05:00:50.091Z,1.77
2022-11-17T05:03:17.384Z,1.67
2022-11-17T05:05:44.541Z,1.80
2022-11-17T05:08:11.781Z,2.30
2022-11-17T05:10:57.864Z,1.95
2022-11-17T05:13:26.125Z,2.17
2022-11-17T05:16:12.206Z,2.20
2022-11-17T05:18:39.432Z,2.25
2022-11-17T05:21:06.746Z,2.47
2022-11-17T05:23:52.662Z,2.33
2022-11-17T05:26:19.947Z,2.40
2022-11-17T05:28:47.121Z,2.35
2022-11-17T05:31:14.353Z,2.50
2022-11-17T05:33:41.617Z,2.45
2022-11-17T05:36:08.991Z,2.38
2022-11-17T05:38:36.279Z,2.28
2022-11-17T05:41:03.467Z,1.88
2022-11-17T05:43:30.623Z,2.22
2022-11-17T05:45:57.812Z,1.98
2022-11-17T05:48:25.051Z,1.85
2022-11-17T05:50:52.363Z,1.67
2022-11-17T05:53:19.511Z,2.15
2022-11-17T05:55:46.730Z,2.30
2022-11-17T05:58:13.919Z,1.83
2022-11-17T06:00:41.162Z,1.50
2022-11-17T06:03:08.303Z,2.03
2022-11-17T06:05:35.531Z,1.67
2022-11-17T06:08:02.704Z,1.75
2022-11-17T06:10:29.903Z,1.70
2022-11-17T06:12:57.044Z,1.85
2022-11-17T06:15:24.369Z,1.70
2022-11-17T06:17:51.540Z,1.42
2022-11-17T06:20:19.591Z,1.80
2022-11-17T06:22:48.466Z,1.40
2022-11-17T06:25:15.992Z,1.40
2022-11-17T06:27:43.185Z,1.77
2022-11-17T06:30:10.461Z,1.60
2022-11-17T06:32:37.628Z,1.42
2022-11-17T06:35:04.892Z,1.60
2022-11-17T06:37:32.056Z,1.55
2022-11-17T06:39:59.323Z,1.30
2022-11-17T06:42:45.385Z,2.13
2022-11-17T06:45:12.655Z,1.63
2022-11-17T06:47:40.170Z,1.58
2022-11-17T06:50:07.476Z,2.40
2022-11-17T06:52:34.816Z,1.33
2022-11-17T06:55:02.140Z,1.70
2022-11-17T06:57:29.395Z,1.75
2022-11-17T06:59:56.646Z,1.40
2022-11-17T07:02:23.897Z,1.60
2022-11-17T07:04:51.252Z,1.40
2022-11-17T07:07:18.515Z,1.10
2022-11-17T07:09:45.877Z,1.30
2022-11-17T07:12:13.218Z,1.77
2022-11-17T07:14:40.501Z,1.23
2022-11-17T07:17:07.719Z,1.30
2022-11-17T07:19:35.023Z,2.13
2022-11-17T07:22:02.294Z,1.30
2022-11-17T07:24:29.492Z,1.20
2022-11-17T07:26:56.824Z,1.40
2022-11-17T07:29:24.094Z,2.00
2022-11-17T07:31:51.340Z,1.45
2022-11-17T07:34:18.588Z,1.50
2022-11-17T07:36:45.845Z,1.90
2022-11-17T07:39:18.460Z,1.90
2022-11-17T07:41:48.434Z,2.00
2022-11-17T07:44:15.688Z,1.63
2022-11-17T07:46:42.945Z,1.40
2022-11-17T07:49:10.197Z,1.73
2022-11-17T07:51:37.436Z,2.25
2022-11-17T07:54:04.641Z,1.50
2022-11-17T07:56:31.921Z,1.65
2022-11-17T07:58:59.160Z,2.22
2022-11-17T08:01:29.783Z,1.80
2022-11-17T08:03:57.968Z,1.70
2022-11-17T08:06:25.324Z,1.70
2022-11-17T08:08:53.662Z,2.13
2022-11-17T08:11:20.905Z,2.00
2022-11-17T08:13:50.083Z,2.58
2022-11-17T08:16:17.322Z,3.05
2022-11-17T08:18:50.521Z,2.53
2022-11-17T08:21:19.554Z,2.60
2022-11-17T08:23:46.796Z,2.33
2022-11-17T08:26:14.061Z,3.05
2022-11-17T08:28:41.307Z,2.60
2022-11-17T08:31:08.541Z,2.30
2022-11-17T08:33:36.048Z,2.28
2022-11-17T08:36:03.356Z,2.97
2022-11-17T08:38:30.581Z,2.70
2022-11-17T08:40:57.805Z,3.20
2022-11-17T08:43:25.022Z,2.40
2022-11-17T08:45:52.304Z,2.20
2022-11-17T08:48:19.482Z,2.83
2022-11-17T08:50:46.737Z,3.03
2022-11-17T08:53:14.273Z,2.60
2022-11-17T08:55:41.739Z,2.55
2022-11-17T08:58:09.126Z,3.10
2022-11-17T09:00:36.443Z,2.65
2022-11-17T09:03:03.618Z,2.90
2022-11-17T09:05:30.849Z,2.50
2022-11-17T09:08:10.696Z,2.47
2022-11-17T09:10:49.389Z,2.40
2022-11-17T09:13:18.709Z,2.80
2022-11-17T09:15:46.220Z,3.35
2022-11-17T09:18:13.497Z,3.15
2022-11-17T09:20:45.488Z,2.65
2022-11-17T09:23:13.197Z,3.03
2022-11-17T09:25:40.462Z,2.72
2022-11-17T09:28:07.710Z,2.47
2022-11-17T09:30:34.933Z,2.88
2022-11-17T09:33:02.107Z,2.53
2022-11-17T09:35:29.369Z,2.30
2022-11-17T09:37:56.552Z,2.78
2022-11-17T09:40:23.798Z,2.85
2022-11-17T09:42:51.092Z,2.55
2022-11-17T09:45:18.331Z,3.03
2022-11-17T09:47:45.510Z,3.05
2022-11-17T09:50:12.710Z,3.03
2022-11-17T09:52:39.895Z,2.95
2022-11-17T09:55:07.169Z,3.40
2022-11-17T09:57:34.433Z,2.42
2022-11-17T10:00:01.726Z,1.60
2022-11-17T10:02:32.099Z,2.47
2022-11-17T10:04:59.355Z,2.72
2022-11-17T10:07:26.591Z,2.42
2022-11-17T10:09:53.895Z,2.60
2022-11-17T10:12:21.098Z,2.33
2022-11-17T10:14:48.305Z,2.67
2022-11-17T10:17:15.520Z,2.67
2022-11-17T10:19:43.932Z,2.97
2022-11-17T10:22:11.155Z,1.90
2022-11-17T10:24:38.431Z,2.05
2022-11-17T10:27:05.632Z,2.75
2022-11-17T10:29:32.843Z,2.60
2022-11-17T10:32:00.750Z,2.58
2022-11-17T10:34:31.070Z,3.58
2022-11-17T10:37:00.282Z,2.60
2022-11-17T10:39:27.469Z,2.30
2022-11-17T10:41:54.881Z,2.25
2022-11-17T10:44:22.073Z,1.95
2022-11-17T10:46:49.269Z,2.22
2022-11-17T10:49:16.463Z,2.22
2022-11-17T10:51:43.683Z,4.03
2022-11-17T10:54:10.897Z,2.55
2022-11-17T10:56:38.173Z,1.90
2022-11-17T10:59:05.353Z,2.60
2022-11-17T11:01:32.820Z,2.47
2022-11-17T11:04:00.119Z,2.25
2022-11-17T11:06:27.339Z,2.70
2022-11-17T11:08:55.148Z,2.60
2022-11-17T11:11:22.521Z,2.05
2022-11-17T11:13:49.766Z,2.60
2022-11-17T11:16:17.014Z,3.13
2022-11-17T11:18:44.221Z,2.88
2022-11-17T11:21:12.539Z,3.10
2022-11-17T11:23:39.762Z,2.60
2022-11-17T11:26:07.134Z,3.00
2022-11-17T11:28:34.391Z,2.90
2022-11-17T11:31:01.631Z,3.85
2022-11-17T11:33:28.826Z,3.70
2022-11-17T11:35:56.049Z,2.95
2022-11-17T11:38:23.238Z,3.33
2022-11-17T11:40:50.478Z,4.25
2022-11-17T11:43:17.666Z,3.40
2022-11-17T11:45:44.900Z,2.75
2022-11-17T11:48:12.392Z,3.53
2022-11-17T11:50:41.870Z,3.70
2022-11-17T11:53:09.222Z,3.65
2022-11-17T11:55:36.463Z,3.35
2022-11-17T11:58:03.666Z,3.88
2022-11-17T12:00:30.906Z,3.90
2022-11-17T12:02:58.176Z,3.55
2022-11-17T12:05:25.461Z,3.35
2022-11-17T12:07:52.659Z,3.83
2022-11-17T12:10:19.936Z,3.95
2022-11-17T12:12:47.189Z,3.08
2022-11-17T12:15:14.483Z,4.35
2022-11-17T12:17:41.711Z,2.67
2022-11-17T12:20:11.011Z,3.55
2022-11-17T12:22:38.455Z,2.78
2022-11-17T12:25:05.726Z,3.33
2022-11-17T12:27:32.872Z,2.88
2022-11-17T12:30:00.097Z,3.05
2022-11-17T12:32:27.349Z,2.97
2022-11-17T12:34:54.615Z,2.72
2022-11-17T12:37:22.146Z,2.58
2022-11-17T12:39:49.401Z,2.58
2022-11-17T12:42:16.555Z,2.42
2022-11-17T12:44:44.226Z,3.13
2022-11-17T12:47:11.528Z,2.50
2022-11-17T12:49:38.760Z,2.50
2022-11-17T12:52:05.947Z,2.08
2022-11-17T12:54:33.247Z,2.20
2022-11-17T12:57:00.417Z,2.00
2022-11-17T12:59:27.606Z,2.15
2022-11-17T13:01:54.884Z,1.80
2022-11-17T13:04:22.138Z,2.17
2022-11-17T13:06:49.437Z,2.03
2022-11-17T13:09:16.735Z,1.90
2022-11-17T13:11:43.997Z,2.75
2022-11-17T13:14:11.622Z,2.00
2022-11-17T13:16:39.310Z,2.10
2022-11-17T13:19:06.471Z,3.25
2022-11-17T13:21:33.716Z,1.88
2022-11-17T13:24:00.997Z,1.50
2022-11-17T13:26:28.213Z,1.73
2022-11-17T13:28:55.377Z,1.90
2022-11-17T13:31:24.027Z,1.70
2022-11-17T13:33:51.511Z,1.85
2022-11-17T13:36:19.673Z,1.88
2022-11-17T13:38:46.930Z,1.05
2022-11-17T13:41:14.140Z,1.88
2022-11-17T13:43:41.382Z,1.90
2022-11-17T13:46:08.590Z,1.48
2022-11-17T13:48:35.926Z,1.17
2022-11-17T13:51:03.093Z,1.90
2022-11-17T13:53:32.468Z,1.70
2022-11-17T13:55:59.652Z,1.80
2022-11-17T13:58:27.286Z,1.80
2022-11-17T14:00:54.668Z,1.13
2022-11-17T14:03:21.993Z,1.63
2022-11-17T14:05:49.146Z,1.63
2022-11-17T14:08:16.374Z,1.30
2022-11-17T14:10:43.871Z,1.30
2022-11-17T14:13:11.104Z,1.27
2022-11-17T14:15:38.347Z,1.65
2022-11-17T14:18:05.556Z,1.10
2022-11-17T14:20:32.768Z,1.30
2022-11-17T14:23:00.092Z,1.15
2022-11-17T14:25:27.225Z,1.70
2022-11-17T14:27:54.604Z,1.23
2022-11-17T14:30:22.411Z,1.10
2022-11-17T14:32:49.628Z,1.20
2022-11-17T14:37:44.053Z,1.13
2022-11-17T14:40:11.207Z,1.80
2022-11-17T14:42:41.315Z,1.00
2022-11-17T14:45:08.883Z,1.17
2022-11-17T14:47:36.041Z,0.80
2022-11-17T14:50:03.601Z,0.80
2022-11-17T14:52:30.866Z,1.00
2022-11-17T14:54:59.080Z,1.00
2022-11-17T14:57:26.316Z,0.77
2022-11-17T14:59:53.597Z,1.38
2022-11-17T15:02:20.857Z,1.15
2022-11-17T15:04:51.042Z,1.50
2022-11-17T15:07:18.931Z,1.25
2022-11-17T15:09:46.169Z,1.20
2022-11-17T15:12:13.366Z,1.63
2022-11-17T15:14:40.690Z,1.08
2022-11-17T15:17:13.886Z,1.45
2022-11-17T15:19:41.849Z,1.25
2022-11-17T15:22:08.994Z,1.50
2022-11-17T15:24:36.194Z,1.48
2022-11-17T15:27:03.379Z,0.90
2022-11-17T15:29:30.575Z,1.40
2022-11-17T15:31:57.806Z,1.40
2022-11-17T15:34:25.073Z,1.33
2022-11-17T15:36:52.263Z,1.75
2022-11-17T15:39:20.714Z,1.27
2022-11-17T15:41:49.020Z,1.33
2022-11-17T15:44:16.304Z,1.70
2022-11-17T15:46:47.426Z,1.35
2022-11-17T15:49:15.622Z,1.90
2022-11-17T15:51:43.035Z,1.25
2022-11-17T15:54:12.696Z,1.10
2022-11-17T15:56:43.974Z,0.90
2022-11-17T15:59:11.156Z,1.30
2022-11-17T16:01:38.376Z,1.20
2022-11-17T16:04:05.539Z,1.80
2022-11-17T16:06:33.230Z,1.50
2022-11-17T16:09:00.484Z,2.40
2022-11-17T16:11:27.842Z,1.60
2022-11-17T16:13:55.329Z,1.40
2022-11-17T16:16:22.564Z,1.30
2022-11-17T16:18:49.772Z,1.42
2022-11-17T16:21:17.003Z,1.27
2022-11-17T16:23:44.238Z,2.22
2022-11-17T16:26:11.465Z,1.50
2022-11-17T16:28:38.646Z,1.23
2022-11-17T16:31:05.905Z,2.10
2022-11-17T16:33:33.085Z,1.35
2022-11-17T16:36:00.350Z,1.40
2022-11-17T16:38:27.518Z,1.20
2022-11-17T16:40:54.743Z,1.38
2022-11-17T16:43:21.922Z,1.25
2022-11-17T16:45:49.162Z,1.40
2022-11-17T16:48:16.414Z,1.45
2022-11-17T16:50:43.713Z,1.17
2022-11-17T16:53:10.864Z,1.48
2022-11-17T16:55:38.100Z,1.52
2022-11-17T16:58:05.299Z,1.30
2022-11-17T17:00:32.588Z,1.40
2022-11-17T17:02:59.855Z,1.60
2022-11-17T17:05:29.423Z,1.58
2022-11-17T17:07:57.040Z,1.90
2022-11-17T17:10:24.385Z,1.50
2022-11-17T17:12:51.580Z,1.48
2022-11-17T17:15:18.838Z,1.45
2022-11-17T17:17:46.120Z,1.42
2022-11-17T17:20:13.320Z,1.42
2022-11-17T17:22:40.486Z,2.08
2022-11-17T17:25:07.862Z,1.40
2022-11-17T17:27:35.054Z,1.33
2022-11-17T17:30:02.284Z,1.75
2022-11-17T17:32:29.510Z,1.60
2022-11-17T17:34:56.769Z,2.35
2022-11-17T17:37:23.911Z,1.50
2022-11-17T17:39:51.169Z,1.75
2022-11-17T17:42:18.350Z,1.45
2022-11-17T17:44:45.574Z,1.50
2022-11-17T17:47:12.876Z,2.00
2022-11-17T17:49:40.083Z,1.50
2022-11-17T17:52:12.458Z,1.70
2022-11-17T17:54:41.202Z,1.83
2022-11-17T17:57:10.440Z,1.77
2022-11-17T17:59:37.675Z,2.05
2022-11-17T18:02:05.021Z,1.95
2022-11-17T18:04:32.204Z,1.55
2022-11-17T18:07:01.429Z,2.08
2022-11-17T18:09:28.675Z,1.23
2022-11-17T18:11:55.964Z,1.70
2022-11-17T18:14:26.170Z,1.48
2022-11-17T18:16:53.469Z,2.05
2022-11-17T18:19:20.643Z,1.90
2022-11-17T18:21:47.884Z,2.03
2022-11-17T18:24:15.120Z,2.00
2022-11-17T18:26:42.346Z,1.60
2022-11-17T18:29:09.605Z,1.38
2022-11-17T18:31:37.018Z,3.17
2022-11-17T18:34:04.189Z,1.80
2022-11-17T18:36:31.602Z,1.30
2022-11-17T18:38:58.842Z,1.80
2022-11-17T18:41:26.097Z,1.50
2022-11-17T18:43:53.287Z,1.50
2022-11-17T18:46:21.477Z,1.30
2022-11-17T18:48:48.719Z,2.38
2022-11-17T18:51:20.602Z,2.22
2022-11-17T18:53:48.396Z,1.55
2022-11-17T18:56:15.656Z,1.70
2022-11-17T18:58:42.914Z,2.05
2022-11-17T19:01:10.287Z,1.88
2022-11-17T19:03:37.670Z,2.13
2022-11-17T19:06:04.878Z,1.70
2022-11-17T19:08:32.155Z,2.40
2022-11-17T19:11:04.693Z,1.77
2022-11-17T19:13:33.353Z,2.45
2022-11-17T19:16:00.598Z,2.17
2022-11-17T19:18:28.387Z,1.85
2022-11-17T19:20:55.685Z,1.85
2022-11-17T19:23:22.948Z,1.73
2022-11-17T19:25:50.089Z,2.38
2022-11-17T19:28:17.445Z,2.03
2022-11-17T19:30:44.652Z,1.92
2022-11-17T19:33:12.647Z,1.83
2022-11-17T19:35:43.826Z,1.80
2022-11-17T19:38:11.073Z,2.47
2022-11-17T19:40:38.739Z,1.95
2022-11-17T19:43:06.152Z,1.98
2022-11-17T19:45:33.324Z,2.10
2022-11-17T19:48:01.028Z,2.28
2022-11-17T19:50:28.857Z,2.00
2022-11-17T19:52:56.075Z,2.42
2022-11-17T19:55:24.072Z,2.17
2022-11-17T19:57:51.549Z,2.15
2022-11-17T20:00:18.787Z,2.17
2022-11-17T20:02:46.253Z,2.22
2022-11-17T20:05:13.542Z,2.00
2022-11-17T20:07:40.930Z,2.10
2022-11-17T20:10:08.116Z,1.95
2022-11-17T20:12:35.382Z,1.77
2022-11-17T20:15:02.635Z,2.42
2022-11-17T20:17:29.802Z,2.15
2022-11-17T20:19:57.057Z,2.03
2022-11-17T20:22:24.927Z,3.08
2022-11-17T20:24:52.174Z,1.98
2022-11-17T20:27:19.474Z,2.25
2022-11-17T20:29:46.688Z,2.45
2022-11-17T20:32:13.895Z,2.22
2022-11-17T20:34:41.431Z,2.85
2022-11-17T20:37:08.670Z,1.98
2022-11-17T20:39:35.944Z,2.50
2022-11-17T20:42:03.237Z,2.42
2022-11-17T20:44:31.473Z,2.00
2022-11-17T20:46:58.647Z,3.15
2022-11-17T20:49:27.793Z,4.28
2022-11-17T20:51:56.206Z,2.20
2022-11-17T20:54:23.492Z,1.95
2022-11-17T20:56:50.772Z,2.03
2022-11-17T20:59:20.178Z,2.10
2022-11-17T21:01:49.226Z,1.70
2022-11-17T21:04:16.469Z,1.58
2022-11-17T21:06:43.608Z,1.60
2022-11-17T21:09:10.830Z,2.55
2022-11-17T21:11:56.649Z,2.40
2022-11-17T21:14:25.886Z,2.55
2022-11-17T21:16:53.124Z,1.90
2022-11-17T21:19:20.453Z,2.35
2022-11-17T21:21:47.693Z,2.33
2022-11-17T21:24:14.940Z,2.22
2022-11-17T21:26:42.275Z,2.55
2022-11-17T21:29:09.525Z,2.20
2022-11-17T21:31:36.757Z,1.58
2022-11-17T21:34:04.387Z,1.77
2022-11-17T21:36:31.575Z,2.00
2022-11-17T21:38:58.842Z,2.33
2022-11-17T21:41:26.072Z,1.60
2022-11-17T21:43:53.333Z,1.80
2022-11-17T21:46:20.607Z,1.95
2022-11-17T21:48:47.901Z,1.95
2022-11-17T21:51:15.084Z,4.75
2022-11-17T21:53:42.322Z,1.70
2022-11-17T21:56:09.524Z,2.40
2022-11-17T21:58:36.811Z,3.05
2022-11-17T22:01:04.127Z,1.98
2022-11-17T22:03:31.486Z,1.60
2022-11-17T22:06:02.323Z,1.90
2022-11-17T22:08:29.859Z,1.65
2022-11-17T22:10:57.442Z,1.98
2022-11-17T22:13:24.667Z,1.52
2022-11-17T22:15:51.857Z,1.65
2022-11-17T22:18:19.226Z,1.90
2022-11-17T22:20:46.424Z,3.45
2022-11-17T22:23:13.604Z,1.80
2022-11-17T22:25:45.654Z,1.60
2022-11-17T22:28:14.700Z,1.83
2022-11-17T22:30:42.003Z,1.40
2022-11-17T22:33:09.202Z,2.05
2022-11-17T22:35:36.383Z,1.67
2022-11-17T22:38:03.616Z,2.83
2022-11-17T22:40:30.822Z,1.45
2022-11-17T22:43:01.113Z,1.50
2022-11-17T22:45:31.537Z,2.10
2022-11-17T22:47:58.721Z,1.42
2022-11-17T22:50:25.959Z,1.90
2022-11-17T22:52:53.362Z,1.65
2022-11-17T22:55:20.583Z,1.30
2022-11-17T22:57:47.757Z,1.85
2022-11-17T23:00:15.058Z,1.67
2022-11-17T23:02:42.258Z,1.30
2022-11-17T23:05:09.571Z,1.60
2022-11-17T23:07:36.843Z,1.73
2022-11-17T23:10:04.148Z,1.60
2022-11-17T23:12:31.316Z,1.70
2022-11-17T23:14:58.565Z,1.73
2022-11-17T23:17:25.916Z,1.83
2022-11-17T23:19:53.137Z,1.38
2022-11-17T23:22:20.571Z,2.10
2022-11-17T23:24:47.896Z,2.30
2022-11-17T23:27:15.096Z,1.60
2022-11-17T23:29:42.359Z,2.65
2022-11-17T23:32:09.578Z,1.88
2022-11-17T23:34:36.838Z,1.90
2022-11-17T23:37:04.278Z,2.10
2022-11-17T23:39:31.570Z,2.35
2022-11-17T23:41:58.757Z,1.70
2022-11-17T23:44:26.077Z,1.75
2022-11-17T23:46:53.358Z,3.70
2022-11-17T23:49:20.617Z,1.85
2022-11-17T23:51:47.814Z,3.17
2022-11-17T23:54:15.024Z,1.98
2022-11-17T23:56:42.222Z,2.35
2022-11-17T23:59:09.913Z,1.50
